sensor_id;sensor_type;location;lat;lon;timestamp;pressure;altitude;pressure_sealevel;temperature;humidity
43161;BME280;40968;52.342;5.528;2024-03-29T00:00:55;99005.41;;;8.81;62.22
43161;BME280;40968;52.342;5.528;2024-03-29T00:03:21;98827.63;;;7.75;62.60
43161;BME280;40968;52.342;5.528;2024-03-29T00:05:46;98931.38;;;8.25;62.45
43161;BME280;40968;52.342;5.528;2024-03-29T00:08:12;98954.78;;;8.41;62.57
43161;BME280;40968;52.342;5.528;2024-03-29T00:10:38;98949.19;;;8.35;62.63
43161;BME280;40968;52.342;5.528;2024-03-29T00:13:05;98748.81;;;7.15;62.44
43161;BME280;40968;52.342;5.528;2024-03-29T00:15:31;98925.91;;;8.17;62.73
43161;BME280;40968;52.342;5.528;2024-03-29T00:17:57;99019.91;;;8.68;62.86
43161;BME280;40968;52.342;5.528;2024-03-29T00:20:22;98792.09;;;7.37;62.86
43161;BME280;40968;52.342;5.528;2024-03-29T00:22:48;99017.38;;;8.67;63.00
43161;BME280;40968;52.342;5.528;2024-03-29T00:25:14;98994.81;;;8.51;63.03
43161;BME280;40968;52.342;5.528;2024-03-29T00:27:39;99012.34;;;8.63;63.05
43161;BME280;40968;52.342;5.528;2024-03-29T00:30:07;98937.56;;;8.16;63.05
43161;BME280;40968;52.342;5.528;2024-03-29T00:32:33;98955.41;;;8.25;63.01
43161;BME280;40968;52.342;5.528;2024-03-29T00:34:58;98881.69;;;7.77;63.02
43161;BME280;40968;52.342;5.528;2024-03-29T00:37:24;99020.94;;;8.57;63.13
43161;BME280;40968;52.342;5.528;2024-03-29T00:39:50;98818.63;;;7.28;63.05
43161;BME280;40968;52.342;5.528;2024-03-29T00:42:15;98986.16;;;8.29;63.19
43161;BME280;40968;52.342;5.528;2024-03-29T00:44:41;98846.78;;;7.41;62.85
43161;BME280;40968;52.342;5.528;2024-03-29T00:47:09;99026.84;;;8.41;63.32
43161;BME280;40968;52.342;5.528;2024-03-29T00:49:35;99025.88;;;8.52;63.13
43161;BME280;40968;52.342;5.528;2024-03-29T00:52:00;98887.88;;;7.68;63.10
43161;BME280;40968;52.342;5.528;2024-03-29T00:54:26;99029.53;;;8.51;63.09
43161;BME280;40968;52.342;5.528;2024-03-29T00:56:52;99038.50;;;8.50;63.24
43161;BME280;40968;52.342;5.528;2024-03-29T00:59:18;98971.91;;;7.91;63.41
43161;BME280;40968;52.342;5.528;2024-03-29T01:01:44;99017.72;;;8.34;63.75
43161;BME280;40968;52.342;5.528;2024-03-29T01:04:11;98988.72;;;8.11;64.01
43161;BME280;40968;52.342;5.528;2024-03-29T01:06:37;99046.09;;;8.45;64.04
43161;BME280;40968;52.342;5.528;2024-03-29T01:09:03;98989.13;;;8.07;63.97
43161;BME280;40968;52.342;5.528;2024-03-29T01:11:30;98934.31;;;7.75;64.09
43161;BME280;40968;52.342;5.528;2024-03-29T01:13:56;99047.94;;;8.35;64.24
43161;BME280;40968;52.342;5.528;2024-03-29T01:16:22;99041.06;;;8.32;64.46
43161;BME280;40968;52.342;5.528;2024-03-29T01:18:47;99005.56;;;8.12;64.53
43161;BME280;40968;52.342;5.528;2024-03-29T01:21:14;99000.53;;;7.99;64.53
43161;BME280;40968;52.342;5.528;2024-03-29T01:23:40;99043.47;;;8.25;64.54
43161;BME280;40968;52.342;5.528;2024-03-29T01:26:06;99031.94;;;8.25;64.71
43161;BME280;40968;52.342;5.528;2024-03-29T01:28:32;98804.91;;;6.84;64.63
43161;BME280;40968;52.342;5.528;2024-03-29T01:30:58;98910.06;;;7.49;64.83
43161;BME280;40968;52.342;5.528;2024-03-29T01:33:24;99028.72;;;8.21;65.06
43161;BME280;40968;52.342;5.528;2024-03-29T01:35:50;99027.88;;;8.21;65.10
43161;BME280;40968;52.342;5.528;2024-03-29T01:38:17;98805.47;;;6.78;64.98
43161;BME280;40968;52.342;5.528;2024-03-29T01:40:43;98928.00;;;7.56;65.27
43161;BME280;40968;52.342;5.528;2024-03-29T01:43:08;99027.06;;;8.20;65.53
43161;BME280;40968;52.342;5.528;2024-03-29T01:45:35;98803.22;;;6.83;65.30
43161;BME280;40968;52.342;5.528;2024-03-29T01:48:05;98948.75;;;7.72;65.35
43161;BME280;40968;52.342;5.528;2024-03-29T01:50:31;99009.63;;;8.16;65.45
43161;BME280;40968;52.342;5.528;2024-03-29T01:52:59;98930.66;;;7.66;65.54
43161;BME280;40968;52.342;5.528;2024-03-29T01:55:27;99008.09;;;8.13;65.82
43161;BME280;40968;52.342;5.528;2024-03-29T01:57:54;98886.22;;;7.37;65.70
43161;BME280;40968;52.342;5.528;2024-03-29T02:00:22;98825.09;;;6.96;65.35
43161;BME280;40968;52.342;5.528;2024-03-29T02:02:51;98846.81;;;7.02;66.10
43161;BME280;40968;52.342;5.528;2024-03-29T02:05:18;98762.03;;;6.68;65.83
43161;BME280;40968;52.342;5.528;2024-03-29T02:07:45;98987.47;;;8.06;65.84
43161;BME280;40968;52.342;5.528;2024-03-29T02:10:14;98985.78;;;8.05;65.77
43161;BME280;40968;52.342;5.528;2024-03-29T02:12:42;98986.03;;;8.02;65.77
43161;BME280;40968;52.342;5.528;2024-03-29T02:15:14;98986.03;;;8.02;65.90
43161;BME280;40968;52.342;5.528;2024-03-29T02:17:41;98992.41;;;8.01;65.96
43161;BME280;40968;52.342;5.528;2024-03-29T02:20:09;98945.53;;;7.69;65.76
43161;BME280;40968;52.342;5.528;2024-03-29T02:22:36;98995.31;;;7.97;66.00
43161;BME280;40968;52.342;5.528;2024-03-29T02:25:08;98952.56;;;7.70;65.87
43161;BME280;40968;52.342;5.528;2024-03-29T02:27:35;98943.72;;;7.59;65.74
43161;BME280;40968;52.342;5.528;2024-03-29T02:30:02;98992.13;;;7.94;65.84
43161;BME280;40968;52.342;5.528;2024-03-29T02:32:28;98837.72;;;6.94;65.75
43161;BME280;40968;52.342;5.528;2024-03-29T02:34:55;99004.91;;;7.90;65.91
43161;BME280;40968;52.342;5.528;2024-03-29T02:37:21;98950.59;;;7.52;65.83
43161;BME280;40968;52.342;5.528;2024-03-29T02:39:48;98867.00;;;6.75;65.92
43161;BME280;40968;52.342;5.528;2024-03-29T02:42:16;98856.91;;;6.88;66.02
43161;BME280;40968;52.342;5.528;2024-03-29T02:44:42;98845.53;;;6.86;65.90
43161;BME280;40968;52.342;5.528;2024-03-29T02:47:09;98841.19;;;6.75;66.09
43161;BME280;40968;52.342;5.528;2024-03-29T02:49:34;98954.41;;;7.50;65.65
43161;BME280;40968;52.342;5.528;2024-03-29T02:52:01;99012.47;;;7.85;65.77
43161;BME280;40968;52.342;5.528;2024-03-29T02:54:27;99021.47;;;7.84;65.95
43161;BME280;40968;52.342;5.528;2024-03-29T02:56:53;99019.22;;;7.79;65.83
43161;BME280;40968;52.342;5.528;2024-03-29T02:59:20;98974.31;;;7.55;65.87
43161;BME280;40968;52.342;5.528;2024-03-29T03:01:47;98803.75;;;6.47;65.82
43161;BME280;40968;52.342;5.528;2024-03-29T03:04:12;98807.69;;;6.43;65.46
43161;BME280;40968;52.342;5.528;2024-03-29T03:06:39;98948.63;;;7.35;65.52
43161;BME280;40968;52.342;5.528;2024-03-29T03:09:04;99013.31;;;7.86;65.72
43161;BME280;40968;52.342;5.528;2024-03-29T03:11:48;98925.91;;;7.30;65.59
43161;BME280;40968;52.342;5.528;2024-03-29T03:14:15;99025.81;;;7.85;65.60
43161;BME280;40968;52.342;5.528;2024-03-29T03:16:42;98799.56;;;6.45;65.64
43161;BME280;40968;52.342;5.528;2024-03-29T03:19:09;99018.78;;;7.84;65.52
43161;BME280;40968;52.342;5.528;2024-03-29T03:21:35;99019.63;;;7.85;65.69
43161;BME280;40968;52.342;5.528;2024-03-29T03:24:02;98983.44;;;7.62;65.66
43161;BME280;40968;52.342;5.528;2024-03-29T03:26:29;99015.03;;;7.77;65.77
43161;BME280;40968;52.342;5.528;2024-03-29T03:28:56;98796.19;;;6.43;65.65
43161;BME280;40968;52.342;5.528;2024-03-29T03:31:21;99031.16;;;7.85;65.70
43161;BME280;40968;52.342;5.528;2024-03-29T03:33:49;98971.78;;;7.44;65.76
43161;BME280;40968;52.342;5.528;2024-03-29T03:36:15;99035.50;;;7.76;65.83
43161;BME280;40968;52.342;5.528;2024-03-29T03:38:41;98732.34;;;5.92;65.62
43161;BME280;40968;52.342;5.528;2024-03-29T03:41:07;99046.84;;;7.88;65.76
43161;BME280;40968;52.342;5.528;2024-03-29T03:43:34;99047.56;;;7.90;65.75
43161;BME280;40968;52.342;5.528;2024-03-29T03:46:01;98955.66;;;7.36;65.97
43161;BME280;40968;52.342;5.528;2024-03-29T03:48:28;98994.09;;;7.62;65.71
43161;BME280;40968;52.342;5.528;2024-03-29T03:50:55;98986.66;;;7.56;65.63
43161;BME280;40968;52.342;5.528;2024-03-29T03:53:22;99040.25;;;7.92;65.76
43161;BME280;40968;52.342;5.528;2024-03-29T03:55:48;98953.94;;;7.35;65.73
43161;BME280;40968;52.342;5.528;2024-03-29T03:58:14;98925.06;;;7.10;65.68
43161;BME280;40968;52.342;5.528;2024-03-29T04:00:40;99063.13;;;7.95;65.50
43161;BME280;40968;52.342;5.528;2024-03-29T04:03:07;98975.69;;;7.40;65.58
43161;BME280;40968;52.342;5.528;2024-03-29T04:05:32;98990.84;;;7.49;65.67
43161;BME280;40968;52.342;5.528;2024-03-29T04:08:00;99019.94;;;7.72;65.73
43161;BME280;40968;52.342;5.528;2024-03-29T04:10:26;98817.22;;;6.46;65.59
43161;BME280;40968;52.342;5.528;2024-03-29T04:12:52;99069.03;;;7.99;65.92
43161;BME280;40968;52.342;5.528;2024-03-29T04:15:18;99071.72;;;7.99;66.14
43161;BME280;40968;52.342;5.528;2024-03-29T04:17:44;99031.84;;;7.77;65.64
43161;BME280;40968;52.342;5.528;2024-03-29T04:20:10;98964.47;;;7.26;65.51
43161;BME280;40968;52.342;5.528;2024-03-29T04:22:37;98955.22;;;7.30;65.88
43161;BME280;40968;52.342;5.528;2024-03-29T04:25:04;99056.84;;;8.06;65.86
43161;BME280;40968;52.342;5.528;2024-03-29T04:27:30;99055.84;;;8.07;65.73
43161;BME280;40968;52.342;5.528;2024-03-29T04:29:56;99054.03;;;8.07;65.62
43161;BME280;40968;52.342;5.528;2024-03-29T04:32:23;99053.72;;;8.10;65.64
43161;BME280;40968;52.342;5.528;2024-03-29T04:34:49;98964.78;;;7.43;65.48
43161;BME280;40968;52.342;5.528;2024-03-29T04:37:16;99042.78;;;8.04;65.66
43161;BME280;40968;52.342;5.528;2024-03-29T04:39:43;98783.03;;;6.51;65.32
43161;BME280;40968;52.342;5.528;2024-03-29T04:42:11;99054.56;;;8.21;65.84
43161;BME280;40968;52.342;5.528;2024-03-29T04:44:38;99057.09;;;8.22;65.52
43161;BME280;40968;52.342;5.528;2024-03-29T04:47:05;98829.56;;;6.86;65.63
43161;BME280;40968;52.342;5.528;2024-03-29T04:49:32;98976.00;;;7.76;65.69
43161;BME280;40968;52.342;5.528;2024-03-29T04:52:01;99023.13;;;8.05;65.78
43161;BME280;40968;52.342;5.528;2024-03-29T04:54:28;99027.63;;;8.14;65.74
43161;BME280;40968;52.342;5.528;2024-03-29T04:56:55;98987.34;;;7.88;65.84
43161;BME280;40968;52.342;5.528;2024-03-29T04:59:23;99047.81;;;8.26;65.99
43161;BME280;40968;52.342;5.528;2024-03-29T05:01:49;98875.81;;;7.24;65.96
43161;BME280;40968;52.342;5.528;2024-03-29T05:04:18;99051.19;;;8.28;66.09
43161;BME280;40968;52.342;5.528;2024-03-29T05:06:50;99034.34;;;8.18;66.49
43161;BME280;40968;52.342;5.528;2024-03-29T05:09:17;99061.88;;;8.28;66.48
43161;BME280;40968;52.342;5.528;2024-03-29T05:11:43;99059.91;;;8.30;66.71
43161;BME280;40968;52.342;5.528;2024-03-29T05:14:11;99024.09;;;8.04;66.79
43161;BME280;40968;52.342;5.528;2024-03-29T05:16:40;98897.72;;;7.28;67.04
43161;BME280;40968;52.342;5.528;2024-03-29T05:19:07;99016.97;;;7.94;67.19
43161;BME280;40968;52.342;5.528;2024-03-29T05:21:33;99029.44;;;8.04;67.65
43161;BME280;40968;52.342;5.528;2024-03-29T05:24:00;99047.69;;;8.18;67.77
43161;BME280;40968;52.342;5.528;2024-03-29T05:26:26;99066.38;;;8.28;67.98
43161;BME280;40968;52.342;5.528;2024-03-29T05:28:53;99025.94;;;7.93;68.30
43161;BME280;40968;52.342;5.528;2024-03-29T05:31:22;99082.50;;;8.26;68.72
43161;BME280;40968;52.342;5.528;2024-03-29T05:33:50;99084.50;;;8.24;69.05
43161;BME280;40968;52.342;5.528;2024-03-29T05:36:17;99081.97;;;8.23;69.26
43161;BME280;40968;52.342;5.528;2024-03-29T05:38:44;99048.56;;;7.89;69.60
43161;BME280;40968;52.342;5.528;2024-03-29T05:41:10;99050.66;;;7.95;69.83
43161;BME280;40968;52.342;5.528;2024-03-29T05:43:38;98963.63;;;7.36;70.55
43161;BME280;40968;52.342;5.528;2024-03-29T05:46:05;99103.72;;;8.18;70.81
43161;BME280;40968;52.342;5.528;2024-03-29T05:48:31;98886.75;;;6.82;71.13
43161;BME280;40968;52.342;5.528;2024-03-29T05:50:59;99107.38;;;8.17;71.55
43161;BME280;40968;52.342;5.528;2024-03-29T05:53:26;99109.22;;;8.17;72.10
43161;BME280;40968;52.342;5.528;2024-03-29T05:55:52;99105.00;;;8.14;72.55
43161;BME280;40968;52.342;5.528;2024-03-29T05:58:19;99097.81;;;8.14;72.91
43161;BME280;40968;52.342;5.528;2024-03-29T06:00:46;99044.22;;;7.78;73.45
43161;BME280;40968;52.342;5.528;2024-03-29T06:03:13;99098.94;;;8.12;74.10
43161;BME280;40968;52.342;5.528;2024-03-29T06:05:40;99033.13;;;7.73;75.05
43161;BME280;40968;52.342;5.528;2024-03-29T06:08:08;99109.19;;;8.07;75.40
43161;BME280;40968;52.342;5.528;2024-03-29T06:10:35;99103.19;;;8.05;76.42
43161;BME280;40968;52.342;5.528;2024-03-29T06:13:01;99115.81;;;8.03;76.88
43161;BME280;40968;52.342;5.528;2024-03-29T06:15:34;99124.91;;;8.00;77.48
43161;BME280;40968;52.342;5.528;2024-03-29T06:18:19;99133.06;;;7.99;77.72
43161;BME280;40968;52.342;5.528;2024-03-29T06:20:46;99132.09;;;8.00;77.94
43161;BME280;40968;52.342;5.528;2024-03-29T06:23:14;98886.13;;;6.49;78.19
43161;BME280;40968;52.342;5.528;2024-03-29T06:25:41;99132.09;;;8.00;78.71
43161;BME280;40968;52.342;5.528;2024-03-29T06:28:07;99152.47;;;8.01;78.99
43161;BME280;40968;52.342;5.528;2024-03-29T06:30:34;99103.72;;;7.79;79.09
43161;BME280;40968;52.342;5.528;2024-03-29T06:33:00;99150.22;;;8.06;79.36
43161;BME280;40968;52.342;5.528;2024-03-29T06:35:28;99154.00;;;8.03;79.74
43161;BME280;40968;52.342;5.528;2024-03-29T06:37:56;99145.56;;;7.88;79.90
43161;BME280;40968;52.342;5.528;2024-03-29T06:40:24;99165.66;;;8.02;80.21
43161;BME280;40968;52.342;5.528;2024-03-29T06:42:50;99103.84;;;7.68;80.50
43161;BME280;40968;52.342;5.528;2024-03-29T06:45:17;99039.81;;;7.28;80.53
43161;BME280;40968;52.342;5.528;2024-03-29T06:47:43;99119.56;;;7.71;81.10
43161;BME280;40968;52.342;5.528;2024-03-29T06:50:10;98924.50;;;6.56;81.17
43161;BME280;40968;52.342;5.528;2024-03-29T06:52:37;99166.91;;;8.08;81.43
43161;BME280;40968;52.342;5.528;2024-03-29T06:55:05;99168.63;;;8.09;81.58
43161;BME280;40968;52.342;5.528;2024-03-29T06:57:33;99167.19;;;8.14;81.76
43161;BME280;40968;52.342;5.528;2024-03-29T07:00:02;99049.50;;;7.49;81.43
43161;BME280;40968;52.342;5.528;2024-03-29T07:02:29;99149.09;;;8.18;81.84
43161;BME280;40968;52.342;5.528;2024-03-29T07:04:56;99071.56;;;7.71;81.93
43161;BME280;40968;52.342;5.528;2024-03-29T07:07:22;99151.22;;;8.24;82.01
43161;BME280;40968;52.342;5.528;2024-03-29T07:09:49;99140.38;;;8.26;81.77
43161;BME280;40968;52.342;5.528;2024-03-29T07:12:15;99131.81;;;8.12;81.69
43161;BME280;40968;52.342;5.528;2024-03-29T07:14:44;99149.53;;;8.23;82.08
43161;BME280;40968;52.342;5.528;2024-03-29T07:17:11;99084.06;;;7.90;82.34
43161;BME280;40968;52.342;5.528;2024-03-29T07:19:37;99014.44;;;7.63;82.44
43161;BME280;40968;52.342;5.528;2024-03-29T07:22:04;99101.19;;;8.07;82.31
43161;BME280;40968;52.342;5.528;2024-03-29T07:24:30;99074.81;;;7.84;82.13
43161;BME280;40968;52.342;5.528;2024-03-29T07:26:57;99027.06;;;7.61;82.27
43161;BME280;40968;52.342;5.528;2024-03-29T07:29:23;99137.72;;;8.26;82.12
43161;BME280;40968;52.342;5.528;2024-03-29T07:31:51;99026.78;;;7.55;82.04
43161;BME280;40968;52.342;5.528;2024-03-29T07:34:19;98865.41;;;6.53;82.04
43161;BME280;40968;52.342;5.528;2024-03-29T07:36:45;99154.56;;;8.36;82.43
43161;BME280;40968;52.342;5.528;2024-03-29T07:39:12;99098.97;;;8.02;82.05
43161;BME280;40968;52.342;5.528;2024-03-29T07:41:38;99132.94;;;8.20;81.97
43161;BME280;40968;52.342;5.528;2024-03-29T07:44:05;99171.59;;;8.45;81.52
43161;BME280;40968;52.342;5.528;2024-03-29T07:46:36;99175.69;;;8.49;81.23
43161;BME280;40968;52.342;5.528;2024-03-29T07:49:06;99135.19;;;8.24;81.26
43161;BME280;40968;52.342;5.528;2024-03-29T07:51:33;99188.31;;;8.47;81.09
43161;BME280;40968;52.342;5.528;2024-03-29T07:53:59;99126.63;;;8.11;81.31
43161;BME280;40968;52.342;5.528;2024-03-29T07:56:26;99023.00;;;7.38;81.35
43161;BME280;40968;52.342;5.528;2024-03-29T07:58:53;99118.88;;;8.08;81.70
43161;BME280;40968;52.342;5.528;2024-03-29T08:01:20;98970.75;;;7.06;81.64
43161;BME280;40968;52.342;5.528;2024-03-29T08:03:47;99021.28;;;7.37;81.63
43161;BME280;40968;52.342;5.528;2024-03-29T08:06:15;99177.06;;;8.34;81.89
43161;BME280;40968;52.342;5.528;2024-03-29T08:08:43;99179.19;;;8.50;82.08
43161;BME280;40968;52.342;5.528;2024-03-29T08:11:10;99177.91;;;8.54;81.77
43161;BME280;40968;52.342;5.528;2024-03-29T08:13:37;99148.66;;;8.33;81.59
43161;BME280;40968;52.342;5.528;2024-03-29T08:16:04;98936.53;;;7.11;81.23
43161;BME280;40968;52.342;5.528;2024-03-29T08:18:31;98921.28;;;7.13;81.41
43161;BME280;40968;52.342;5.528;2024-03-29T08:20:58;99168.50;;;8.69;81.50
43161;BME280;40968;52.342;5.528;2024-03-29T08:23:26;99183.53;;;8.70;80.89
43161;BME280;40968;52.342;5.528;2024-03-29T08:25:53;99025.09;;;7.83;81.29
43161;BME280;40968;52.342;5.528;2024-03-29T08:28:21;99188.44;;;8.75;81.06
43161;BME280;40968;52.342;5.528;2024-03-29T08:30:57;98888.16;;;6.86;80.60
43161;BME280;40968;52.342;5.528;2024-03-29T08:33:23;99166.38;;;8.63;80.76
43161;BME280;40968;52.342;5.528;2024-03-29T08:35:50;98989.47;;;7.64;81.15
43161;BME280;40968;52.342;5.528;2024-03-29T08:38:20;99182.38;;;8.92;80.92
43161;BME280;40968;52.342;5.528;2024-03-29T08:40:48;99088.81;;;8.45;80.78
43161;BME280;40968;52.342;5.528;2024-03-29T08:43:15;99177.56;;;9.06;81.01
43161;BME280;40968;52.342;5.528;2024-03-29T08:45:43;99103.56;;;8.59;80.89
43161;BME280;40968;52.342;5.528;2024-03-29T08:48:10;98894.22;;;7.27;79.85
43161;BME280;40968;52.342;5.528;2024-03-29T08:50:36;99146.56;;;8.75;79.79
43161;BME280;40968;52.342;5.528;2024-03-29T08:53:03;99224.06;;;9.23;79.84
43161;BME280;40968;52.342;5.528;2024-03-29T08:55:30;99215.75;;;9.26;79.50
43161;BME280;40968;52.342;5.528;2024-03-29T08:57:58;99217.69;;;9.34;79.48
43161;BME280;40968;52.342;5.528;2024-03-29T09:00:26;99114.34;;;8.77;79.41
43161;BME280;40968;52.342;5.528;2024-03-29T09:02:53;98906.81;;;7.64;79.26
43161;BME280;40968;52.342;5.528;2024-03-29T09:05:20;99220.97;;;9.65;78.79
43161;BME280;40968;52.342;5.528;2024-03-29T09:07:47;99175.41;;;9.47;78.17
43161;BME280;40968;52.342;5.528;2024-03-29T09:10:14;99117.31;;;9.21;78.07
43161;BME280;40968;52.342;5.528;2024-03-29T09:12:40;99131.72;;;9.38;77.31
43161;BME280;40968;52.342;5.528;2024-03-29T09:15:09;99040.38;;;8.87;77.34
43161;BME280;40968;52.342;5.528;2024-03-29T09:17:38;99019.88;;;8.78;77.06
43161;BME280;40968;52.342;5.528;2024-03-29T09:20:09;99204.38;;;9.89;76.96
43161;BME280;40968;52.342;5.528;2024-03-29T09:22:35;99229.41;;;10.16;77.08
43161;BME280;40968;52.342;5.528;2024-03-29T09:25:04;99223.63;;;10.21;76.73
43161;BME280;40968;52.342;5.528;2024-03-29T09:27:30;99225.94;;;10.34;76.32
43161;BME280;40968;52.342;5.528;2024-03-29T09:29:59;99231.22;;;10.43;76.10
43161;BME280;40968;52.342;5.528;2024-03-29T09:32:27;99213.63;;;10.41;75.43
43161;BME280;40968;52.342;5.528;2024-03-29T09:34:54;99029.47;;;9.26;74.64
43161;BME280;40968;52.342;5.528;2024-03-29T09:37:21;99093.41;;;9.66;74.16
43161;BME280;40968;52.342;5.528;2024-03-29T09:39:49;99053.03;;;9.41;73.68
43161;BME280;40968;52.342;5.528;2024-03-29T09:42:17;99176.56;;;10.18;73.74
43161;BME280;40968;52.342;5.528;2024-03-29T09:44:45;99163.63;;;10.13;73.29
43161;BME280;40968;52.342;5.528;2024-03-29T09:47:15;98990.69;;;8.94;72.48
43161;BME280;40968;52.342;5.528;2024-03-29T09:49:45;99260.72;;;10.61;72.44
43161;BME280;40968;52.342;5.528;2024-03-29T09:52:16;99127.72;;;9.70;72.63
43161;BME280;40968;52.342;5.528;2024-03-29T09:54:44;99246.63;;;10.59;72.01
43161;BME280;40968;52.342;5.528;2024-03-29T09:57:12;99256.50;;;10.59;71.82
43161;BME280;40968;52.342;5.528;2024-03-29T09:59:39;99261.00;;;10.58;71.82
43161;BME280;40968;52.342;5.528;2024-03-29T10:02:14;99265.53;;;10.58;72.11
43161;BME280;40968;52.342;5.528;2024-03-29T10:04:42;99271.97;;;10.65;72.33
43161;BME280;40968;52.342;5.528;2024-03-29T10:07:14;99103.81;;;9.69;71.72
43161;BME280;40968;52.342;5.528;2024-03-29T10:09:42;99185.53;;;10.09;70.64
43161;BME280;40968;52.342;5.528;2024-03-29T10:12:10;99068.97;;;9.60;70.21
43161;BME280;40968;52.342;5.528;2024-03-29T10:14:44;99154.41;;;10.26;70.30
43161;BME280;40968;52.342;5.528;2024-03-29T10:17:18;99209.16;;;10.86;69.76
43161;BME280;40968;52.342;5.528;2024-03-29T10:19:46;99264.00;;;11.36;69.23
43161;BME280;40968;52.342;5.528;2024-03-29T10:22:14;99213.81;;;11.28;69.04
43161;BME280;40968;52.342;5.528;2024-03-29T10:24:42;99254.91;;;11.63;68.25
43161;BME280;40968;52.342;5.528;2024-03-29T10:27:08;99106.00;;;10.64;67.58
43161;BME280;40968;52.342;5.528;2024-03-29T10:29:35;99253.81;;;11.74;67.23
43161;BME280;40968;52.342;5.528;2024-03-29T10:32:02;99276.31;;;11.81;66.75
43161;BME280;40968;52.342;5.528;2024-03-29T10:34:29;98963.72;;;10.14;66.21
43161;BME280;40968;52.342;5.528;2024-03-29T10:37:00;99265.00;;;11.96;66.15
43161;BME280;40968;52.342;5.528;2024-03-29T10:39:30;99242.28;;;11.82;66.07
43161;BME280;40968;52.342;5.528;2024-03-29T10:41:59;99138.84;;;11.18;65.82
43161;BME280;40968;52.342;5.528;2024-03-29T10:44:27;99117.81;;;11.05;65.78
43161;BME280;40968;52.342;5.528;2024-03-29T10:46:56;99261.53;;;12.11;65.69
43161;BME280;40968;52.342;5.528;2024-03-29T10:49:23;99279.50;;;12.11;65.44
43161;BME280;40968;52.342;5.528;2024-03-29T10:51:50;99281.19;;;12.12;65.25
43161;BME280;40968;52.342;5.528;2024-03-29T10:54:17;99239.09;;;11.86;64.58
43161;BME280;40968;52.342;5.528;2024-03-29T10:56:47;99228.84;;;11.82;64.72
43161;BME280;40968;52.342;5.528;2024-03-29T10:59:21;99167.88;;;11.66;64.66
43161;BME280;40968;52.342;5.528;2024-03-29T11:01:52;99192.44;;;11.79;64.37
43161;BME280;40968;52.342;5.528;2024-03-29T11:04:22;99262.47;;;12.37;64.73
43161;BME280;40968;52.342;5.528;2024-03-29T11:06:54;99189.81;;;11.96;63.99
43161;BME280;40968;52.342;5.528;2024-03-29T11:09:26;99192.63;;;11.94;64.03
43161;BME280;40968;52.342;5.528;2024-03-29T11:11:56;99214.22;;;12.10;63.89
43161;BME280;40968;52.342;5.528;2024-03-29T11:14:30;99282.59;;;12.41;64.00
43161;BME280;40968;52.342;5.528;2024-03-29T11:16:59;99288.81;;;12.33;63.84
43161;BME280;40968;52.342;5.528;2024-03-29T11:19:26;99192.47;;;11.53;64.13
43161;BME280;40968;52.342;5.528;2024-03-29T11:21:53;99264.00;;;11.97;63.98
43161;BME280;40968;52.342;5.528;2024-03-29T11:24:22;99219.22;;;11.71;63.30
43161;BME280;40968;52.342;5.528;2024-03-29T11:26:49;99301.03;;;12.27;63.46
43161;BME280;40968;52.342;5.528;2024-03-29T11:29:21;99299.03;;;12.30;63.65
43161;BME280;40968;52.342;5.528;2024-03-29T11:31:48;99255.78;;;12.06;63.41
43161;BME280;40968;52.342;5.528;2024-03-29T11:34:22;99126.50;;;11.34;63.53
43161;BME280;40968;52.342;5.528;2024-03-29T11:36:49;99254.31;;;12.12;62.61
43161;BME280;40968;52.342;5.528;2024-03-29T11:39:20;99194.41;;;11.69;62.13
43161;BME280;40968;52.342;5.528;2024-03-29T11:41:47;99109.25;;;11.36;62.48
43161;BME280;40968;52.342;5.528;2024-03-29T11:44:14;99200.16;;;12.25;61.67
43161;BME280;40968;52.342;5.528;2024-03-29T11:46:43;99045.47;;;11.65;60.34
43161;BME280;40968;52.342;5.528;2024-03-29T11:49:10;99291.78;;;13.47;60.01
43161;BME280;40968;52.342;5.528;2024-03-29T11:51:36;99286.84;;;13.67;59.64
43161;BME280;40968;52.342;5.528;2024-03-29T11:54:03;99254.34;;;13.69;58.99
43161;BME280;40968;52.342;5.528;2024-03-29T11:56:30;99301.38;;;14.06;58.13
43161;BME280;40968;52.342;5.528;2024-03-29T11:58:56;99295.53;;;13.94;58.30
43161;BME280;40968;52.342;5.528;2024-03-29T12:01:25;99267.66;;;13.62;57.94
43161;BME280;40968;52.342;5.528;2024-03-29T12:03:53;99225.00;;;13.34;57.97
43161;BME280;40968;52.342;5.528;2024-03-29T12:06:20;99182.50;;;13.13;58.25
43161;BME280;40968;52.342;5.528;2024-03-29T12:08:47;99141.03;;;12.91;58.45
43161;BME280;40968;52.342;5.528;2024-03-29T12:11:15;99300.75;;;13.96;58.28
43161;BME280;40968;52.342;5.528;2024-03-29T12:13:44;99299.50;;;14.06;57.51
43161;BME280;40968;52.342;5.528;2024-03-29T12:16:10;99232.16;;;13.67;57.57
43161;BME280;40968;52.342;5.528;2024-03-29T12:18:37;99277.78;;;14.08;57.42
43161;BME280;40968;52.342;5.528;2024-03-29T12:21:06;99312.78;;;14.16;57.11
43161;BME280;40968;52.342;5.528;2024-03-29T12:23:34;99324.41;;;14.17;57.10
43161;BME280;40968;52.342;5.528;2024-03-29T12:26:02;99319.56;;;14.04;57.22
43161;BME280;40968;52.342;5.528;2024-03-29T12:28:28;99340.78;;;13.99;57.50
43161;BME280;40968;52.342;5.528;2024-03-29T12:30:59;99348.88;;;13.90;56.82
43161;BME280;40968;52.342;5.528;2024-03-29T12:33:25;99326.69;;;13.80;57.02
43161;BME280;40968;52.342;5.528;2024-03-29T12:35:54;99276.81;;;13.45;57.42
43161;BME280;40968;52.342;5.528;2024-03-29T12:38:24;99049.22;;;12.05;57.13
43161;BME280;40968;52.342;5.528;2024-03-29T12:40:50;99331.06;;;13.81;56.41
43161;BME280;40968;52.342;5.528;2024-03-29T12:43:20;99332.38;;;14.02;56.07
43161;BME280;40968;52.342;5.528;2024-03-29T12:45:48;99353.53;;;14.21;56.07
43161;BME280;40968;52.342;5.528;2024-03-29T12:48:17;99334.06;;;14.42;55.36
43161;BME280;40968;52.342;5.528;2024-03-29T12:50:44;99336.47;;;14.60;55.44
43161;BME280;40968;52.342;5.528;2024-03-29T12:53:14;99312.63;;;14.49;55.39
43161;BME280;40968;52.342;5.528;2024-03-29T12:55:43;99332.59;;;14.63;55.47
43161;BME280;40968;52.342;5.528;2024-03-29T12:58:11;99217.94;;;13.89;54.97
43161;BME280;40968;52.342;5.528;2024-03-29T13:00:39;99148.97;;;13.49;54.73
43161;BME280;40968;52.342;5.528;2024-03-29T13:03:06;99285.22;;;14.37;54.68
43161;BME280;40968;52.342;5.528;2024-03-29T13:05:33;99300.66;;;14.52;54.70
43161;BME280;40968;52.342;5.528;2024-03-29T13:08:03;99294.72;;;14.56;54.46